Time;durP1;ratioP1;P1;durP2;ratioP2;P2;SDS_P1;SDS_P2;PMS_P1;PMS_P2;Temp;Humidity;BMP_temperature;BMP_pressure;BME280_temperature;BME280_humidity;BME280_pressure;Samples;Min_cycle;Max_cycle;Signal;HPM_P1;HPM_P2
2023/07/20 00:02:22;;;;;;;;;;;;;;;7.70;100.00;99552.78;5020295;28;19930;-86
2023/07/20 00:04:47;;;;;;;;;;;;;;;7.75;100.00;99562.25;5010929;28;19918;-87
2023/07/20 00:07:12;;;;;;;;;;;;;;;7.76;100.00;99558.72;5013154;28;19921;-89
2023/07/20 00:09:37;;;;;;;;;;;;;;;7.71;100.00;99555.38;5025337;28;19925;-90
2023/07/20 00:12:03;;;;;;;;;;;;;;;7.73;100.00;99556.19;5014989;28;20465;-87
2023/07/20 00:14:28;;;;;;;;;;;;;;;7.78;100.00;99554.22;5015144;28;20347;-89
2023/07/20 00:16:58;;;;;;;;;;;;;;;7.72;100.00;99554.47;4997415;28;19960;-88
2023/07/20 00:19:27;;;;;;;;;;;;;;;7.61;100.00;99557.47;5000633;28;19917;-88
2023/07/20 07:47:39;;;;;;;;;;;;;;;6.30;100.00;99603.72;4919019;29;19983;-93
2023/07/20 07:50:05;;;;;;;;;;;;;;;6.31;100.00;99602.78;4925755;29;19923;-90
2023/07/20 07:52:30;;;;;;;;;;;;;;;6.34;100.00;99607.09;4925122;29;19962;-89
2023/07/20 07:54:55;;;;;;;;;;;;;;;6.40;100.00;99599.03;4925663;29;20293;-90
2023/07/20 07:57:20;;;;;;;;;;;;;;;6.53;100.00;99613.56;4923434;29;19923;-90
2023/07/20 07:59:46;;;;;;;;;;;;;;;6.55;100.00;99618.78;4923594;29;19955;-90
2023/07/20 08:02:11;;;;;;;;;;;;;;;6.47;100.00;99618.13;4924931;29;20002;-88
2023/07/20 08:04:36;;;;;;;;;;;;;;;6.39;100.00;99617.50;4923415;29;20271;-88
2023/07/20 08:07:03;;;;;;;;;;;;;;;6.58;100.00;99618.69;4925133;29;19974;-85
2023/07/20 08:09:28;;;;;;;;;;;;;;;6.46;100.00;99619.03;4924681;29;19919;-89
2023/07/20 08:11:54;;;;;;;;;;;;;;;6.46;100.00;99616.41;4924560;29;19927;-89
2023/07/20 08:14:19;;;;;;;;;;;;;;;6.47;100.00;99619.00;4924735;29;20030;-85
2023/07/20 08:16:45;;;;;;;;;;;;;;;6.52;100.00;99619.72;4922500;29;20289;-88
2023/07/20 08:19:10;;;;;;;;;;;;;;;6.43;100.00;99611.22;4925104;29;19922;-88
2023/07/20 08:21:36;;;;;;;;;;;;;;;6.43;100.00;99621.75;4928236;29;20446;-88
2023/07/20 08:24:01;;;;;;;;;;;;;;;6.61;100.00;99615.13;4926586;29;19920;-89
2023/07/20 08:26:26;;;;;;;;;;;;;;;6.44;100.00;99618.22;4927767;29;19958;-90
2023/07/20 08:28:52;;;;;;;;;;;;;;;6.33;100.00;99610.63;4928122;29;19919;-89
2023/07/20 08:31:18;;;;;;;;;;;;;;;6.35;100.00;99611.44;4926648;29;21007;-88
2023/07/20 08:33:43;;;;;;;;;;;;;;;6.39;100.00;99614.88;4927366;29;20264;-88
2023/07/20 08:36:08;;;;;;;;;;;;;;;6.38;100.00;99619.25;4926531;29;19942;-89
2023/07/20 08:38:34;;;;;;;;;;;;;;;6.41;100.00;99599.88;4927361;29;19923;-88
2023/07/20 08:41:01;;;;;;;;;;;;;;;6.36;100.00;99611.41;4927623;29;19941;-88
2023/07/20 08:43:27;;;;;;;;;;;;;;;6.46;100.00;99611.16;4927718;29;20476;-92
2023/07/20 08:45:56;;;;;;;;;;;;;;;6.43;100.00;99606.84;4924385;29;19918;-90
2023/07/20 08:48:22;;;;;;;;;;;;;;;6.34;100.00;99607.09;4926352;29;20271;-88
2023/07/20 08:50:49;;;;;;;;;;;;;;;6.42;100.00;99609.53;4926575;29;19923;-90
2023/07/20 08:53:14;;;;;;;;;;;;;;;6.54;100.00;99604.75;4926684;29;20006;-89
2023/07/20 08:55:40;;;;;;;;;;;;;;;6.44;100.00;99605.91;4926355;29;20015;-89
2023/07/20 08:58:08;;;;;;;;;;;;;;;6.30;100.00;99603.72;4926187;29;19929;-91
2023/07/20 09:00:34;;;;;;;;;;;;;;;6.28;100.00;99608.13;4922980;29;19974;-89
2023/07/20 09:03:02;;;;;;;;;;;;;;;6.34;100.00;99615.00;4926549;29;19919;-89
2023/07/20 09:05:27;;;;;;;;;;;;;;;6.42;100.00;99604.25;4926521;29;20034;-88
2023/07/20 09:07:53;;;;;;;;;;;;;;;6.45;100.00;99601.53;4926664;29;20378;-90
2023/07/20 09:10:20;;;;;;;;;;;;;;;6.50;100.00;99597.84;4925457;29;19923;-92
2023/07/20 09:12:46;;;;;;;;;;;;;;;6.39;100.00;99605.19;4928001;29;19919;-94
2023/07/20 09:15:11;;;;;;;;;;;;;;;6.48;100.00;99602.31;4925162;29;19925;-92
2023/07/20 09:17:40;;;;;;;;;;;;;;;6.45;100.00;99599.75;4927680;29;20371;-87
2023/07/20 09:20:07;;;;;;;;;;;;;;;6.44;100.00;99595.38;4925241;29;20021;-93
2023/07/20 09:22:33;;;;;;;;;;;;;;;6.46;100.00;99592.72;4927490;29;20285;-92
2023/07/20 09:24:58;;;;;;;;;;;;;;;6.38;100.00;99592.09;4931411;29;19923;-93
2023/07/20 09:27:37;;;;;;;;;;;;;;;6.30;100.00;99595.81;4926707;29;20355;-95
2023/07/20 09:30:03;;;;;;;;;;;;;;;6.24;100.00;99590.72;4925939;29;20031;-92
2023/07/20 09:32:28;;;;;;;;;;;;;;;6.31;100.00;99584.34;4927740;29;19958;-92
2023/07/20 09:34:54;;;;;;;;;;;;;;;6.25;100.00;99587.16;4928334;29;19923;-93
2023/07/20 09:37:23;;;;;;;;;;;;;;;6.32;100.00;99588.72;4925454;29;19930;-92
2023/07/20 09:39:51;;;;;;;;;;;;;;;6.41;100.00;99586.72;4925825;29;20370;-91
2023/07/20 09:42:17;;;;;;;;;;;;;;;6.53;100.00;99581.97;4926202;29;19947;-93
2023/07/20 09:44:43;;;;;;;;;;;;;;;6.27;100.00;99576.59;4924389;29;19930;-90
2023/07/20 09:47:11;;;;;;;;;;;;;;;6.31;100.00;99580.88;4924702;29;19930;-89
2023/07/20 09:49:45;;;;;;;;;;;;;;;6.29;100.00;99582.69;4925914;29;19923;-90
2023/07/20 09:52:11;;;;;;;;;;;;;;;6.27;100.00;99585.38;4925722;29;19923;-89
2023/07/20 09:54:40;;;;;;;;;;;;;;;6.34;100.00;99584.28;4924901;29;19958;-91
2023/07/20 09:57:08;;;;;;;;;;;;;;;6.36;100.00;99590.34;4924364;29;19923;-91
2023/07/20 09:59:34;;;;;;;;;;;;;;;6.45;100.00;99583.13;4927057;29;19923;-90
2023/07/20 10:02:01;;;;;;;;;;;;;;;6.44;100.00;99576.13;4923735;29;19919;-90
2023/07/20 10:04:28;;;;;;;;;;;;;;;6.32;100.00;99567.69;4924905;29;19919;-89
2023/07/20 10:06:54;;;;;;;;;;;;;;;6.31;100.00;99565.94;4926458;29;19923;-88
2023/07/20 10:09:22;;;;;;;;;;;;;;;6.32;100.00;99565.03;4924843;29;19919;-93
2023/07/20 10:11:53;;;;;;;;;;;;;;;6.37;100.00;99557.00;4925629;29;19926;-88
2023/07/20 10:14:19;;;;;;;;;;;;;;;6.28;100.00;99563.38;4924720;29;19919;-90
2023/07/20 10:16:51;;;;;;;;;;;;;;;6.31;100.00;99551.94;4924680;29;19927;-90
2023/07/20 10:19:25;;;;;;;;;;;;;;;6.46;100.00;99548.84;4925956;29;20406;-89
2023/07/20 10:21:55;;;;;;;;;;;;;;;6.35;100.00;99550.91;4925904;29;19919;-88
2023/07/20 10:24:24;;;;;;;;;;;;;;;6.23;100.00;99541.63;4925796;29;20018;-90
2023/07/20 10:26:50;;;;;;;;;;;;;;;6.31;100.00;99547.50;4924867;29;19926;-91
2023/07/20 10:29:15;;;;;;;;;;;;;;;6.45;100.00;99546.25;4926114;29;19919;-90
2023/07/20 10:31:41;;;;;;;;;;;;;;;6.34;100.00;99546.56;4924286;29;19923;-89
2023/07/20 10:34:06;;;;;;;;;;;;;;;6.33;100.00;99547.47;4924517;29;19965;-90
2023/07/20 10:36:31;;;;;;;;;;;;;;;6.16;100.00;99534.81;4923303;29;20395;-89
2023/07/20 10:39:05;;;;;;;;;;;;;;;6.20;100.00;99539.06;4923837;29;20393;-89
2023/07/20 10:41:35;;;;;;;;;;;;;;;6.12;100.00;99538.44;4924409;29;20362;-91
2023/07/20 10:44:03;;;;;;;;;;;;;;;6.22;100.00;99537.25;4924092;29;19919;-89
2023/07/20 10:46:34;;;;;;;;;;;;;;;6.21;100.00;99527.66;4922789;29;20268;-89
2023/07/20 10:49:04;;;;;;;;;;;;;;;6.15;100.00;99523.41;4924341;29;20302;-89
2023/07/20 10:51:29;;;;;;;;;;;;;;;6.20;100.00;99514.53;4923866;29;19919;-89
2023/07/20 10:53:56;;;;;;;;;;;;;;;6.19;100.00;99516.31;4925930;29;19923;-90
2023/07/20 10:56:23;;;;;;;;;;;;;;;6.21;100.00;99514.50;4925419;29;19974;-89
2023/07/20 10:59:08;;;;;;;;;;;;;;;6.24;100.00;99516.16;4923982;29;19923;-89
2023/07/20 11:01:36;;;;;;;;;;;;;;;6.26;100.00;99504.69;4910740;29;19938;-89
2023/07/20 11:04:08;;;;;;;;;;;;;;;6.23;100.00;99504.78;4923723;29;20039;-89
2023/07/20 11:06:33;;;;;;;;;;;;;;;6.16;100.00;99508.53;4923586;29;19954;-88
2023/07/20 11:09:14;;;;;;;;;;;;;;;6.20;100.00;99498.75;4925067;29;20371;-89
2023/07/20 11:11:39;;;;;;;;;;;;;;;6.26;100.00;99503.84;4923612;29;19919;-89
2023/07/20 11:14:06;;;;;;;;;;;;;;;6.33;100.00;99501.00;4922538;29;20462;-89
2023/07/20 11:16:42;;;;;;;;;;;;;;;6.18;100.00;99501.44;4925997;29;20286;-89
2023/07/20 11:19:17;;;;;;;;;;;;;;;6.25;100.00;99507.38;4922953;29;19930;-89
2023/07/20 11:21:46;;;;;;;;;;;;;;;6.11;100.00;99507.75;4923939;29;20390;-88
2023/07/20 11:24:13;;;;;;;;;;;;;;;6.07;100.00;99488.59;4923245;29;20374;-89
2023/07/20 11:26:49;;;;;;;;;;;;;;;6.12;100.00;99485.81;4923525;29;19923;-92
2023/07/20 11:29:16;;;;;;;;;;;;;;;6.15;100.00;99485.75;4927127;29;19919;-88
2023/07/20 11:31:42;;;;;;;;;;;;;;;6.16;100.00;99476.94;4925396;29;19929;-88
2023/07/20 11:34:10;;;;;;;;;;;;;;;6.25;100.00;99479.28;4923714;29;20370;-89
2023/07/20 11:36:36;;;;;;;;;;;;;;;6.11;100.00;99484.09;4924015;29;19918;-89
2023/07/20 11:39:01;;;;;;;;;;;;;;;6.16;100.00;99482.22;4923813;29;19931;-89
2023/07/20 11:41:27;;;;;;;;;;;;;;;6.00;100.00;99484.44;4923413;29;20002;-87
2023/07/20 11:43:53;;;;;;;;;;;;;;;6.08;100.00;99474.53;4923941;29;19926;-88
2023/07/20 11:46:18;;;;;;;;;;;;;;;6.07;100.00;99474.59;4921603;29;19951;-89
2023/07/20 11:48:44;;;;;;;;;;;;;;;6.06;100.00;99467.59;4923435;29;20297;-89
2023/07/20 11:51:16;;;;;;;;;;;;;;;6.08;100.00;99471.91;4923589;29;19925;-89
2023/07/20 11:53:43;;;;;;;;;;;;;;;6.08;100.00;99455.25;4907436;29;19926;-89
2023/07/20 11:56:08;;;;;;;;;;;;;;;6.16;100.00;99461.16;4924673;29;19919;-90
2023/07/20 11:58:33;;;;;;;;;;;;;;;6.07;100.00;99467.53;4925979;29;19960;-88
2023/07/20 12:00:58;;;;;;;;;;;;;;;5.99;100.00;99465.13;4926317;29;19975;-89
2023/07/20 12:03:24;;;;;;;;;;;;;;;5.99;100.00;99465.13;4928598;29;19946;-88
2023/07/20 12:05:50;;;;;;;;;;;;;;;6.14;100.00;99465.59;4926733;29;19919;-89
2023/07/20 12:08:16;;;;;;;;;;;;;;;6.11;100.00;99463.94;4927822;29;19967;-89
2023/07/20 12:10:43;;;;;;;;;;;;;;;6.07;100.00;99461.44;4926212;29;19927;-88
2023/07/20 12:13:09;;;;;;;;;;;;;;;6.07;100.00;99456.16;4926952;29;19919;-88
2023/07/20 12:15:34;;;;;;;;;;;;;;;6.12;100.00;99451.63;4925087;29;19919;-88
2023/07/20 12:18:00;;;;;;;;;;;;;;;5.97;100.00;99455.59;4927149;29;19923;-89
2023/07/20 12:20:33;;;;;;;;;;;;;;;6.02;100.00;99450.19;4926747;29;20430;-89
2023/07/20 12:23:02;;;;;;;;;;;;;;;5.92;100.00;99445.16;4927382;29;19950;-90
2023/07/20 12:25:37;;;;;;;;;;;;;;;5.87;100.00;99446.19;4911401;29;19923;-88
2023/07/20 12:28:04;;;;;;;;;;;;;;;5.99;100.00;99437.97;4926028;29;19970;-88
2023/07/20 12:30:29;;;;;;;;;;;;;;;5.90;100.00;99446.94;4930060;29;19919;-90
2023/07/20 12:32:55;;;;;;;;;;;;;;;5.94;100.00;99451.22;4926482;29;20268;-87
2023/07/20 12:35:20;;;;;;;;;;;;;;;5.89;100.00;99437.34;4926692;29;20030;-89
2023/07/20 12:37:48;;;;;;;;;;;;;;;5.96;100.00;99436.28;4926705;29;19923;-86
2023/07/20 12:40:14;;;;;;;;;;;;;;;6.06;100.00;99436.03;4926782;29;19929;-88
2023/07/20 12:42:39;;;;;;;;;;;;;;;5.95;100.00;99431.03;4926207;29;20345;-89
2023/07/20 12:45:04;;;;;;;;;;;;;;;6.02;100.00;99432.63;4925652;29;19927;-89
2023/07/20 12:47:30;;;;;;;;;;;;;;;5.96;100.00;99420.50;4923947;29;19983;-90
2023/07/20 12:49:55;;;;;;;;;;;;;;;5.96;100.00;99417.88;4925392;29;20293;-91
2023/07/20 12:52:20;;;;;;;;;;;;;;;6.02;100.00;99422.09;4925842;29;19986;-89
2023/07/20 12:54:45;;;;;;;;;;;;;;;5.91;100.00;99432.91;4925938;29;19981;-89
2023/07/20 12:57:10;;;;;;;;;;;;;;;5.92;100.00;99426.75;4925960;29;20018;-88
2023/07/20 12:59:36;;;;;;;;;;;;;;;5.96;100.00;99425.78;4925900;29;20402;-89
2023/07/20 13:02:01;;;;;;;;;;;;;;;5.93;100.00;99411.81;4925064;29;19919;-89
2023/07/20 13:04:27;;;;;;;;;;;;;;;5.90;100.00;99410.13;4925514;29;20283;-91
2023/07/20 13:06:52;;;;;;;;;;;;;;;5.97;100.00;99409.09;4925185;29;19923;-88
2023/07/20 13:09:17;;;;;;;;;;;;;;;6.05;100.00;99414.13;4927841;29;19926;-89
2023/07/20 13:11:44;;;;;;;;;;;;;;;6.05;100.00;99405.34;4926883;29;19926;-89
2023/07/20 13:14:09;;;;;;;;;;;;;;;6.02;100.00;99405.47;4927526;29;19922;-90
2023/07/20 13:16:35;;;;;;;;;;;;;;;6.19;100.00;99403.19;4925541;29;19919;-89
2023/07/20 13:19:03;;;;;;;;;;;;;;;6.27;100.00;99406.44;4927178;29;19919;-92
2023/07/20 13:21:31;;;;;;;;;;;;;;;6.04;100.00;99399.25;4929720;29;19962;-94
2023/07/20 13:23:56;;;;;;;;;;;;;;;5.96;100.00;99410.00;4909141;29;19919;-92
2023/07/20 13:26:22;;;;;;;;;;;;;;;6.00;100.00;99402.91;4926628;29;19934;-89
2023/07/20 13:28:47;;;;;;;;;;;;;;;6.14;100.00;99395.44;4909465;29;20378;-87
2023/07/20 13:31:12;;;;;;;;;;;;;;;6.11;100.00;99392.03;4924914;29;19926;-88
2023/07/20 13:33:37;;;;;;;;;;;;;;;5.89;100.00;99400.53;4926974;29;20290;-88
2023/07/20 13:36:05;;;;;;;;;;;;;;;5.91;100.00;99397.88;4925484;29;19915;-88
2023/07/20 13:38:31;;;;;;;;;;;;;;;5.88;100.00;99396.19;4909729;29;19927;-89
2023/07/20 13:40:56;;;;;;;;;;;;;;;5.90;100.00;99393.50;4926034;29;19919;-94
2023/07/20 13:43:22;;;;;;;;;;;;;;;5.97;100.00;99393.31;4927050;29;19915;-91
2023/07/20 13:45:47;;;;;;;;;;;;;;;5.86;100.00;99386.63;4925929;29;19922;-89
2023/07/20 13:48:12;;;;;;;;;;;;;;;5.81;100.00;99389.41;4925116;29;20345;-89
2023/07/20 13:50:37;;;;;;;;;;;;;;;5.86;100.00;99395.38;4927909;29;19977;-92
2023/07/20 13:53:03;;;;;;;;;;;;;;;5.99;100.00;99380.13;4926055;29;19919;-90
2023/07/20 13:55:28;;;;;;;;;;;;;;;5.86;100.00;99374.34;4926060;29;19942;-90
2023/07/20 13:57:53;;;;;;;;;;;;;;;5.86;100.00;99378.75;4924710;29;19919;-87
2023/07/20 14:00:19;;;;;;;;;;;;;;;5.82;100.00;99359.56;4924643;29;19958;-89
2023/07/20 14:02:44;;;;;;;;;;;;;;;5.82;100.00;99372.69;4924882;29;19925;-89
2023/07/20 14:05:15;;;;;;;;;;;;;;;5.85;100.00;99361.25;4926103;29;19919;-90
2023/07/20 14:07:40;;;;;;;;;;;;;;;5.88;100.00;99367.25;4924889;29;19927;-90
2023/07/20 14:10:06;;;;;;;;;;;;;;;5.85;100.00;99361.25;4924700;29;19973;-88
2023/07/20 14:12:31;;;;;;;;;;;;;;;5.90;100.00;99368.06;4926327;29;19926;-89
2023/07/20 14:14:56;;;;;;;;;;;;;;;5.84;100.00;99373.53;4924689;29;20386;-89
2023/07/20 14:17:21;;;;;;;;;;;;;;;5.85;100.00;99364.72;4925561;29;19926;-90
2023/07/20 14:19:47;;;;;;;;;;;;;;;5.95;100.00;99366.19;4925801;29;20382;-91
2023/07/20 14:22:12;;;;;;;;;;;;;;;5.90;100.00;99360.16;4926561;29;19923;-90
2023/07/20 14:24:37;;;;;;;;;;;;;;;5.95;100.00;99365.28;4925696;29;20363;-88
2023/07/20 14:27:03;;;;;;;;;;;;;;;6.03;100.00;99354.56;4926736;29;20372;-89
2023/07/20 14:29:31;;;;;;;;;;;;;;;6.04;100.00;99351.03;4924107;29;20354;-90
2023/07/20 14:31:56;;;;;;;;;;;;;;;5.85;100.00;99346.31;4922795;29;20009;-90
2023/07/20 14:34:22;;;;;;;;;;;;;;;5.94;100.00;99351.28;4925630;29;20026;-87
2023/07/20 14:36:47;;;;;;;;;;;;;;;5.85;100.00;99346.31;4925586;29;20358;-90
2023/07/20 14:39:12;;;;;;;;;;;;;;;5.91;100.00;99337.38;4925714;29;19978;-89
2023/07/20 14:41:37;;;;;;;;;;;;;;;5.77;100.00;99332.53;4924571;29;19919;-88
2023/07/20 14:44:03;;;;;;;;;;;;;;;5.72;100.00;99331.81;4925770;29;19929;-87
2023/07/20 14:46:32;;;;;;;;;;;;;;;5.79;100.00;99331.59;4923561;29;20382;-89
2023/07/20 14:48:57;;;;;;;;;;;;;;;5.75;100.00;99323.84;4925245;29;19919;-89
2023/07/20 14:51:23;;;;;;;;;;;;;;;5.74;100.00;99327.38;4925724;29;20013;-90
2023/07/20 14:53:48;;;;;;;;;;;;;;;5.80;100.00;99327.19;4925472;29;19928;-90
2023/07/20 14:56:13;;;;;;;;;;;;;;;5.86;100.00;99334.03;4925544;29;20022;-89
2023/07/20 14:58:38;;;;;;;;;;;;;;;5.73;100.00;99323.91;4925952;29;19947;-87
2023/07/20 15:01:04;;;;;;;;;;;;;;;5.80;100.00;99324.56;4924801;29;20610;-88
2023/07/20 15:03:30;;;;;;;;;;;;;;;5.73;100.00;99317.78;4924272;29;19965;-87
2023/07/20 15:05:55;;;;;;;;;;;;;;;5.67;100.00;99317.97;4924830;29;19920;-88
2023/07/20 15:08:24;;;;;;;;;;;;;;;5.69;100.00;99322.25;4926020;29;19942;-92
2023/07/20 15:10:49;;;;;;;;;;;;;;;5.81;100.00;99316.63;4923950;29;19967;-87
2023/07/20 15:13:14;;;;;;;;;;;;;;;5.74;100.00;99312.44;4925213;29;20343;-87
2023/07/20 15:15:40;;;;;;;;;;;;;;;6.11;100.00;99292.94;4923952;29;19919;-89
2023/07/20 15:18:05;;;;;;;;;;;;;;;5.63;100.00;99304.91;4923618;29;20021;-87
2023/07/20 15:20:31;;;;;;;;;;;;;;;5.69;100.00;99305.63;4922413;29;19927;-88
2023/07/20 15:22:57;;;;;;;;;;;;;;;5.68;100.00;99302.16;4923552;29;19918;-87
2023/07/20 15:25:22;;;;;;;;;;;;;;;5.78;100.00;99303.56;4923612;29;20364;-87
2023/07/20 15:27:47;;;;;;;;;;;;;;;5.70;100.00;99299.47;4924225;29;20023;-87
2023/07/20 15:30:14;;;;;;;;;;;;;;;5.67;100.00;99297.78;4924778;29;19927;-87
2023/07/20 15:32:39;;;;;;;;;;;;;;;5.71;100.00;99293.28;4924590;29;19930;-88
2023/07/20 15:35:06;;;;;;;;;;;;;;;5.65;100.00;99283.84;4925709;29;20027;-88
2023/07/20 15:37:31;;;;;;;;;;;;;;;5.62;100.00;99286.56;4925646;29;19962;-89
2023/07/20 15:39:56;;;;;;;;;;;;;;;5.74;100.00;99290.56;4925102;29;20821;-86
2023/07/20 15:42:22;;;;;;;;;;;;;;;5.67;100.00;99289.06;4924958;29;19947;-87
2023/07/20 15:44:48;;;;;;;;;;;;;;;5.69;100.00;99289.84;4926970;29;19930;-88
2023/07/20 15:47:13;;;;;;;;;;;;;;;5.81;100.00;99286.84;4921609;29;20382;-88
2023/07/20 15:49:38;;;;;;;;;;;;;;;5.78;100.00;99271.19;4908761;29;19930;-88
2023/07/20 15:52:04;;;;;;;;;;;;;;;5.74;100.00;99274.78;4927459;29;19919;-88
2023/07/20 15:54:29;;;;;;;;;;;;;;;5.79;100.00;99278.13;4926620;29;19920;-89
2023/07/20 15:56:54;;;;;;;;;;;;;;;5.62;100.00;99276.06;4927931;29;19919;-87
2023/07/20 15:59:20;;;;;;;;;;;;;;;5.73;100.00;99267.84;4927911;29;19919;-87
2023/07/20 16:01:45;;;;;;;;;;;;;;;5.70;100.00;99260.03;4925839;29;19920;-87
2023/07/20 16:04:14;;;;;;;;;;;;;;;5.68;100.00;99264.47;4929452;29;19946;-86
2023/07/20 16:06:39;;;;;;;;;;;;;;;5.73;100.00;99262.59;4927793;29;19958;-90
2023/07/20 16:09:05;;;;;;;;;;;;;;;5.62;100.00;99258.50;4925946;29;20616;-88
2023/07/20 16:11:31;;;;;;;;;;;;;;;5.90;100.00;99265.50;4926117;29;19923;-90
2023/07/20 16:13:59;;;;;;;;;;;;;;;5.68;100.00;99257.47;4925870;29;19919;-88
2023/07/20 16:16:24;;;;;;;;;;;;;;;5.60;100.00;99256.81;4924957;29;20014;-88
2023/07/20 16:18:50;;;;;;;;;;;;;;;5.58;100.00;99262.13;4927792;29;20021;-87
2023/07/20 16:21:15;;;;;;;;;;;;;;;5.63;100.00;99254.09;4921744;29;20327;-92
2023/07/20 16:23:41;;;;;;;;;;;;;;;5.60;100.00;99252.44;4924787;29;19938;-88
2023/07/20 16:26:06;;;;;;;;;;;;;;;5.58;100.00;99248.13;4926500;29;19930;-90
2023/07/20 16:28:31;;;;;;;;;;;;;;;5.77;100.00;99258.94;4926115;29;19957;-90
2023/07/20 16:30:57;;;;;;;;;;;;;;;5.59;100.00;99253.34;4923937;29;19929;-86
2023/07/20 16:33:22;;;;;;;;;;;;;;;5.60;100.00;99249.81;4920224;29;19978;-87
2023/07/20 16:35:47;;;;;;;;;;;;;;;5.61;100.00;99255.91;4922031;29;20399;-88
2023/07/20 16:38:13;;;;;;;;;;;;;;;5.61;100.00;99255.91;4925519;29;19927;-91
2023/07/20 16:40:43;;;;;;;;;;;;;;;5.57;100.00;99252.53;4926839;29;19919;-85
2023/07/20 16:43:09;;;;;;;;;;;;;;;5.54;100.00;99251.78;4927161;29;19922;-92
2023/07/20 16:45:35;;;;;;;;;;;;;;;5.43;100.00;99247.69;4925998;29;19930;-88
2023/07/20 16:48:00;;;;;;;;;;;;;;;5.52;100.00;99254.44;4926052;29;19926;-89
2023/07/20 16:50:25;;;;;;;;;;;;;;;5.54;100.00;99251.78;4926078;29;19922;-88
2023/07/20 16:52:51;;;;;;;;;;;;;;;5.51;100.00;99252.72;4929898;29;19927;-92
2023/07/20 16:55:16;;;;;;;;;;;;;;;5.54;100.00;99246.53;4927988;29;20005;-87
2023/07/20 16:57:41;;;;;;;;;;;;;;;5.51;100.00;99246.63;4927072;29;19927;-90
2023/07/20 17:00:10;;;;;;;;;;;;;;;5.50;100.00;99244.88;4927339;29;19918;-90
2023/07/20 17:02:39;;;;;;;;;;;;;;;5.44;100.00;99238.91;4924694;29;19923;-88
2023/07/20 17:05:09;;;;;;;;;;;;;;;5.53;100.00;99243.00;4928306;29;20015;-88
2023/07/20 17:07:38;;;;;;;;;;;;;;;5.52;100.00;99241.31;4924590;29;19950;-84
2023/07/20 17:10:07;;;;;;;;;;;;;;;14.16;100.00;99221.69;4925859;29;19919;-80
2023/07/20 17:12:32;;;;;;;;;;;;;;;7.22;100.00;99223.22;4927150;29;19962;-86
2023/07/20 17:14:57;;;;;;;;;;;;;;;6.26;100.00;99231.06;4923800;29;19923;-86
2023/07/20 17:17:23;;;;;;;;;;;;;;;5.91;100.00;99240.94;4922632;29;19926;-87
2023/07/20 17:19:48;;;;;;;;;;;;;;;5.82;100.00;99236.84;4924147;29;20026;-90
2023/07/20 17:22:13;;;;;;;;;;;;;;;5.70;100.00;99237.25;4925946;29;19932;-88
2023/07/20 17:24:41;;;;;;;;;;;;;;;5.82;100.00;99231.59;4928107;29;20018;-87
2023/07/20 17:27:06;;;;;;;;;;;;;;;5.75;100.00;99234.47;4926791;29;19919;-87
2023/07/20 17:29:31;;;;;;;;;;;;;;;5.72;100.00;99240.66;4925735;29;19926;-87
2023/07/20 17:31:57;;;;;;;;;;;;;;;5.53;100.00;99245.63;4925538;29;19970;-85
2023/07/20 17:34:22;;;;;;;;;;;;;;;5.54;100.00;99241.25;4925598;29;20362;-87
2023/07/20 17:36:47;;;;;;;;;;;;;;;5.45;100.00;99240.63;4925826;29;19923;-88
2023/07/20 17:39:12;;;;;;;;;;;;;;;5.49;100.00;99245.78;4914746;29;19971;-87
2023/07/20 17:41:38;;;;;;;;;;;;;;;5.81;100.00;99240.38;4898293;29;19927;-88
2023/07/20 17:44:05;;;;;;;;;;;;;;;5.54;100.00;99242.13;4914781;29;19926;-87
2023/07/20 17:46:31;;;;;;;;;;;;;;;5.41;100.00;99230.28;4912853;29;19927;-89
2023/07/20 17:48:56;;;;;;;;;;;;;;;5.49;100.00;99238.78;4915072;29;19970;-87
2023/07/20 17:51:22;;;;;;;;;;;;;;;5.45;100.00;99237.97;4897990;29;19923;-85
2023/07/20 17:53:47;;;;;;;;;;;;;;;5.43;100.00;99237.19;4914387;29;19959;-85
2023/07/20 17:56:12;;;;;;;;;;;;;;;5.43;100.00;99228.44;4911914;29;20002;-89
2023/07/20 17:58:37;;;;;;;;;;;;;;;5.47;100.00;99235.31;4898884;29;19920;-89
2023/07/20 18:01:03;;;;;;;;;;;;;;;5.59;100.00;99240.19;4913286;29;19919;-89
2023/07/20 18:03:28;;;;;;;;;;;;;;;5.42;100.00;99231.97;4898490;29;19919;-88
2023/07/20 18:05:54;;;;;;;;;;;;;;;5.43;100.00;99234.56;4914349;29;19923;-88
2023/07/20 18:08:19;;;;;;;;;;;;;;;5.32;100.00;99234.03;4914256;29;20347;-85
2023/07/20 18:10:45;;;;;;;;;;;;;;;5.31;100.00;99234.06;4915076;29;19919;-87
2023/07/20 18:13:10;;;;;;;;;;;;;;;5.31;100.00;99234.91;4916472;29;19934;-85
2023/07/20 18:15:35;;;;;;;;;;;;;;;5.35;100.00;99235.72;4921358;29;19919;-87
2023/07/20 18:18:01;;;;;;;;;;;;;;;5.32;100.00;99231.41;4926175;29;20375;-86
2023/07/20 18:20:26;;;;;;;;;;;;;;;5.33;100.00;99227.00;4924279;29;20398;-84
2023/07/20 18:22:52;;;;;;;;;;;;;;;5.43;100.00;99228.44;4920393;29;19974;-85
2023/07/20 18:25:17;;;;;;;;;;;;;;;5.41;100.00;99230.28;4926394;29;19926;-85
2023/07/20 18:27:42;;;;;;;;;;;;;;;5.30;100.00;99234.97;4925028;29;19970;-87
2023/07/20 18:30:08;;;;;;;;;;;;;;;5.41;100.00;99232.91;4923152;29;19986;-87
2023/07/20 18:32:33;;;;;;;;;;;;;;;5.39;100.00;99232.06;4924193;29;19919;-86
2023/07/20 18:34:59;;;;;;;;;;;;;;;5.37;100.00;99228.63;4924798;29;20013;-85
2023/07/20 18:37:25;;;;;;;;;;;;;;;5.48;100.00;99237.03;4924365;29;19923;-87
2023/07/20 18:40:01;;;;;;;;;;;;;;;5.45;100.00;99237.13;4923280;29;19938;-86
2023/07/20 18:42:44;;;;;;;;;;;;;;;5.53;100.00;99235.13;4925456;29;20059;-87
2023/07/20 18:45:10;;;;;;;;;;;;;;;5.53;100.00;99242.16;4921651;29;19919;-86
2023/07/20 18:47:36;;;;;;;;;;;;;;;5.39;100.00;99238.19;4925146;29;19966;-86
2023/07/20 18:50:01;;;;;;;;;;;;;;;5.48;100.00;99241.44;4925027;29;19979;-85
2023/07/20 18:52:26;;;;;;;;;;;;;;;5.45;100.00;99237.97;4926914;29;19923;-87
2023/07/20 18:54:51;;;;;;;;;;;;;;;5.33;100.00;99234.88;4925956;29;19923;-90
2023/07/20 18:57:19;;;;;;;;;;;;;;;5.29;100.00;99231.50;4925058;29;20002;-91
2023/07/20 18:59:45;;;;;;;;;;;;;;;5.28;100.00;99237.63;4925689;29;20078;-85
2023/07/20 19:02:10;;;;;;;;;;;;;;;5.36;100.00;99243.53;4922818;29;20053;-89
2023/07/20 19:04:37;;;;;;;;;;;;;;;5.38;100.00;99236.47;4924189;29;21858;-87
2023/07/20 19:07:02;;;;;;;;;;;;;;;5.34;100.00;99240.09;4924913;29;19919;-86
2023/07/20 19:09:28;;;;;;;;;;;;;;;5.38;100.00;99246.13;4925037;29;19981;-87
2023/07/20 19:11:53;;;;;;;;;;;;;;;5.38;100.00;99244.34;4925690;29;19919;-88
2023/07/20 19:14:19;;;;;;;;;;;;;;;5.34;100.00;99245.34;4925364;29;20021;-88
2023/07/20 19:16:44;;;;;;;;;;;;;;;5.36;100.00;99242.66;4921588;29;20390;-87
2023/07/20 19:19:10;;;;;;;;;;;;;;;5.24;100.00;99239.50;4924740;29;20086;-92
2023/07/20 19:21:35;;;;;;;;;;;;;;;5.34;100.00;99240.09;4925595;29;20419;-86
2023/07/20 19:24:00;;;;;;;;;;;;;;;5.26;100.00;99244.72;4925170;29;19971;-87
2023/07/20 19:26:25;;;;;;;;;;;;;;;5.30;100.00;99253.34;4923474;29;19922;-85
2023/07/20 19:28:51;;;;;;;;;;;;;;;5.23;100.00;99245.69;4924666;29;20051;-84
2023/07/20 19:31:16;;;;;;;;;;;;;;;5.35;100.00;99248.84;4923692;29;19924;-86
2023/07/20 19:33:41;;;;;;;;;;;;;;;5.31;100.00;99253.31;4924707;29;19958;-88
2023/07/20 19:36:07;;;;;;;;;;;;;;;5.37;100.00;99252.28;4923471;29;20310;-87
2023/07/20 19:38:32;;;;;;;;;;;;;;;5.30;100.00;99259.50;4923081;29;19919;-87
2023/07/20 19:40:57;;;;;;;;;;;;;;;5.37;100.00;99257.53;4922884;29;19918;-86
2023/07/20 19:43:23;;;;;;;;;;;;;;;5.34;100.00;99261.09;4923749;29;19919;-86
2023/07/20 19:45:49;;;;;;;;;;;;;;;5.32;100.00;99262.91;4922431;29;20010;-86
2023/07/20 19:48:17;;;;;;;;;;;;;;;5.36;100.00;99261.06;4925714;29;19926;-86
2023/07/20 19:50:43;;;;;;;;;;;;;;;5.36;100.00;99258.44;4922616;29;19930;-86
2023/07/20 19:53:09;;;;;;;;;;;;;;;5.27;100.00;99265.69;4924819;29;19919;-85
2023/07/20 19:55:34;;;;;;;;;;;;;;;5.32;100.00;99257.66;4924177;29;19930;-86
2023/07/20 19:58:02;;;;;;;;;;;;;;;5.29;100.00;99263.00;4924447;29;19926;-90
2023/07/20 20:00:27;;;;;;;;;;;;;;;5.25;100.00;99267.50;4921548;29;19945;-87
2023/07/20 20:02:53;;;;;;;;;;;;;;;5.27;100.00;99276.19;4924569;29;20370;-89
2023/07/20 20:05:20;;;;;;;;;;;;;;;5.28;100.00;99277.03;4923932;29;19919;-86
2023/07/20 20:07:46;;;;;;;;;;;;;;;5.28;100.00;99277.91;4921858;29;19958;-88
2023/07/20 20:10:11;;;;;;;;;;;;;;;5.29;100.00;99281.41;4923048;29;20018;-86